sensor_id;sensor_type;location;lat;lon;timestamp;temperature;humidity
11991;DHT22;6055;52.522;13.446;2023-05-07T00:01:04;10.30;99.90
11991;DHT22;6055;52.522;13.446;2023-05-07T00:03:31;10.30;99.90
11991;DHT22;6055;52.522;13.446;2023-05-07T00:05:56;10.20;99.90
11991;DHT22;6055;52.522;13.446;2023-05-07T00:08:22;10.30;99.90
11991;DHT22;6055;52.522;13.446;2023-05-07T00:10:47;10.30;99.90
11991;DHT22;6055;52.522;13.446;2023-05-07T00:13:13;10.30;99.90
11991;DHT22;6055;52.522;13.446;2023-05-07T00:15:38;10.30;99.90
11991;DHT22;6055;52.522;13.446;2023-05-07T00:18:04;10.30;99.90
11991;DHT22;6055;52.522;13.446;2023-05-07T00:20:29;10.30;99.90
11991;DHT22;6055;52.522;13.446;2023-05-07T00:22:55;10.20;99.90
11991;DHT22;6055;52.522;13.446;2023-05-07T00:25:20;10.20;99.90
11991;DHT22;6055;52.522;13.446;2023-05-07T00:27:46;10.20;99.90
11991;DHT22;6055;52.522;13.446;2023-05-07T00:30:12;10.20;99.90
11991;DHT22;6055;52.522;13.446;2023-05-07T00:32:40;10.20;99.90
11991;DHT22;6055;52.522;13.446;2023-05-07T00:35:06;10.20;99.90
11991;DHT22;6055;52.522;13.446;2023-05-07T00:37:31;10.20;99.90
11991;DHT22;6055;52.522;13.446;2023-05-07T00:39:57;10.20;99.90
11991;DHT22;6055;52.522;13.446;2023-05-07T00:42:23;10.10;99.90
11991;DHT22;6055;52.522;13.446;2023-05-07T00:44:49;10.10;99.90
11991;DHT22;6055;52.522;13.446;2023-05-07T00:47:15;10.10;99.90
11991;DHT22;6055;52.522;13.446;2023-05-07T00:49:42;10.10;99.90
11991;DHT22;6055;52.522;13.446;2023-05-07T00:52:11;10.00;99.90
11991;DHT22;6055;52.522;13.446;2023-05-07T00:54:37;9.90;99.90
11991;DHT22;6055;52.522;13.446;2023-05-07T00:57:03;10.00;99.90
11991;DHT22;6055;52.522;13.446;2023-05-07T00:59:30;10.00;99.90
11991;DHT22;6055;52.522;13.446;2023-05-07T01:01:56;10.10;99.90
11991;DHT22;6055;52.522;13.446;2023-05-07T01:04:22;10.00;99.90
11991;DHT22;6055;52.522;13.446;2023-05-07T01:06:47;10.00;99.90
11991;DHT22;6055;52.522;13.446;2023-05-07T01:09:13;10.00;99.90
11991;DHT22;6055;52.522;13.446;2023-05-07T01:11:39;10.10;99.90
11991;DHT22;6055;52.522;13.446;2023-05-07T01:14:09;10.10;99.90
11991;DHT22;6055;52.522;13.446;2023-05-07T01:16:36;10.10;99.90
11991;DHT22;6055;52.522;13.446;2023-05-07T01:19:01;10.10;99.90
11991;DHT22;6055;52.522;13.446;2023-05-07T01:21:29;10.10;99.90
11991;DHT22;6055;52.522;13.446;2023-05-07T01:23:57;10.10;99.90
11991;DHT22;6055;52.522;13.446;2023-05-07T01:26:23;10.00;99.90
11991;DHT22;6055;52.522;13.446;2023-05-07T01:28:49;10.10;99.90
11991;DHT22;6055;52.522;13.446;2023-05-07T01:31:16;10.10;99.90
11991;DHT22;6055;52.522;13.446;2023-05-07T01:33:43;10.10;99.90
11991;DHT22;6055;52.522;13.446;2023-05-07T01:36:10;10.10;99.90
11991;DHT22;6055;52.522;13.446;2023-05-07T01:38:37;10.10;99.90
11991;DHT22;6055;52.522;13.446;2023-05-07T01:41:03;10.20;99.90
11991;DHT22;6055;52.522;13.446;2023-05-07T01:43:30;10.10;99.90
11991;DHT22;6055;52.522;13.446;2023-05-07T01:45:57;10.10;99.90
11991;DHT22;6055;52.522;13.446;2023-05-07T01:48:24;10.10;99.90
11991;DHT22;6055;52.522;13.446;2023-05-07T01:50:50;10.10;99.90
11991;DHT22;6055;52.522;13.446;2023-05-07T01:53:16;10.20;99.90
11991;DHT22;6055;52.522;13.446;2023-05-07T01:55:41;10.20;99.90
11991;DHT22;6055;52.522;13.446;2023-05-07T01:58:07;10.20;99.90
11991;DHT22;6055;52.522;13.446;2023-05-07T02:00:32;10.20;99.90
11991;DHT22;6055;52.522;13.446;2023-05-07T02:02:58;10.10;99.90
11991;DHT22;6055;52.522;13.446;2023-05-07T02:05:24;10.10;99.90
11991;DHT22;6055;52.522;13.446;2023-05-07T02:07:52;10.00;99.90
11991;DHT22;6055;52.522;13.446;2023-05-07T02:10:17;10.00;99.90
11991;DHT22;6055;52.522;13.446;2023-05-07T02:12:43;10.00;99.90
11991;DHT22;6055;52.522;13.446;2023-05-07T02:15:08;10.00;99.90
11991;DHT22;6055;52.522;13.446;2023-05-07T02:17:34;10.00;99.90
11991;DHT22;6055;52.522;13.446;2023-05-07T02:20:00;10.00;99.90
11991;DHT22;6055;52.522;13.446;2023-05-07T02:22:26;10.10;99.90
11991;DHT22;6055;52.522;13.446;2023-05-07T02:24:51;10.10;99.90
11991;DHT22;6055;52.522;13.446;2023-05-07T02:27:17;10.10;99.90
11991;DHT22;6055;52.522;13.446;2023-05-07T02:29:42;10.20;99.90
11991;DHT22;6055;52.522;13.446;2023-05-07T02:32:08;10.20;99.90
11991;DHT22;6055;52.522;13.446;2023-05-07T02:34:34;10.20;99.90
11991;DHT22;6055;52.522;13.446;2023-05-07T02:36:59;10.20;99.90
11991;DHT22;6055;52.522;13.446;2023-05-07T02:39:25;10.20;99.90
11991;DHT22;6055;52.522;13.446;2023-05-07T02:41:50;10.10;99.90
11991;DHT22;6055;52.522;13.446;2023-05-07T02:44:15;10.10;99.90
11991;DHT22;6055;52.522;13.446;2023-05-07T02:46:41;10.10;99.90
11991;DHT22;6055;52.522;13.446;2023-05-07T02:49:06;10.10;99.90
11991;DHT22;6055;52.522;13.446;2023-05-07T02:51:32;10.20;99.90
11991;DHT22;6055;52.522;13.446;2023-05-07T02:53:57;10.10;99.90
11991;DHT22;6055;52.522;13.446;2023-05-07T02:56:25;10.20;99.90
11991;DHT22;6055;52.522;13.446;2023-05-07T02:58:50;10.20;99.90
11991;DHT22;6055;52.522;13.446;2023-05-07T03:01:16;10.20;99.90
11991;DHT22;6055;52.522;13.446;2023-05-07T03:03:41;10.20;99.90
11991;DHT22;6055;52.522;13.446;2023-05-07T03:06:07;10.10;99.90
11991;DHT22;6055;52.522;13.446;2023-05-07T03:08:32;10.10;99.90
11991;DHT22;6055;52.522;13.446;2023-05-07T03:10:58;10.10;99.90
11991;DHT22;6055;52.522;13.446;2023-05-07T03:13:24;10.10;99.90
11991;DHT22;6055;52.522;13.446;2023-05-07T03:15:49;10.10;99.90
11991;DHT22;6055;52.522;13.446;2023-05-07T03:18:14;10.10;99.90
11991;DHT22;6055;52.522;13.446;2023-05-07T03:20:40;10.10;99.90
11991;DHT22;6055;52.522;13.446;2023-05-07T03:23:05;10.10;99.90
11991;DHT22;6055;52.522;13.446;2023-05-07T03:25:32;10.00;99.90
11991;DHT22;6055;52.522;13.446;2023-05-07T03:27:57;9.90;99.90
11991;DHT22;6055;52.522;13.446;2023-05-07T03:30:23;10.00;99.90
11991;DHT22;6055;52.522;13.446;2023-05-07T03:32:48;10.00;99.90
11991;DHT22;6055;52.522;13.446;2023-05-07T03:35:14;10.00;99.90
11991;DHT22;6055;52.522;13.446;2023-05-07T03:37:40;10.00;99.90
11991;DHT22;6055;52.522;13.446;2023-05-07T03:40:06;10.00;99.90
11991;DHT22;6055;52.522;13.446;2023-05-07T03:42:32;10.00;99.90
11991;DHT22;6055;52.522;13.446;2023-05-07T03:44:57;10.00;99.90
11991;DHT22;6055;52.522;13.446;2023-05-07T03:47:22;10.00;99.90
11991;DHT22;6055;52.522;13.446;2023-05-07T03:49:48;10.00;99.90
11991;DHT22;6055;52.522;13.446;2023-05-07T03:52:14;10.00;99.90
11991;DHT22;6055;52.522;13.446;2023-05-07T03:54:40;10.00;99.90
11991;DHT22;6055;52.522;13.446;2023-05-07T03:57:05;10.00;99.90
11991;DHT22;6055;52.522;13.446;2023-05-07T03:59:31;10.00;99.90
11991;DHT22;6055;52.522;13.446;2023-05-07T04:01:56;10.00;99.90
11991;DHT22;6055;52.522;13.446;2023-05-07T04:04:21;10.00;99.90
11991;DHT22;6055;52.522;13.446;2023-05-07T04:06:47;10.00;99.90
11991;DHT22;6055;52.522;13.446;2023-05-07T04:09:12;10.10;99.90
11991;DHT22;6055;52.522;13.446;2023-05-07T04:11:39;10.00;99.90
11991;DHT22;6055;52.522;13.446;2023-05-07T04:14:05;10.10;99.90
11991;DHT22;6055;52.522;13.446;2023-05-07T04:16:31;10.10;99.90
11991;DHT22;6055;52.522;13.446;2023-05-07T04:18:56;10.00;99.90
11991;DHT22;6055;52.522;13.446;2023-05-07T04:21:22;10.00;99.90
11991;DHT22;6055;52.522;13.446;2023-05-07T04:23:48;10.10;99.90
11991;DHT22;6055;52.522;13.446;2023-05-07T04:26:14;10.10;99.90
11991;DHT22;6055;52.522;13.446;2023-05-07T04:28:40;10.20;99.90
11991;DHT22;6055;52.522;13.446;2023-05-07T04:31:06;10.20;99.90
11991;DHT22;6055;52.522;13.446;2023-05-07T04:33:32;10.10;99.90
11991;DHT22;6055;52.522;13.446;2023-05-07T04:35:58;10.10;99.90
11991;DHT22;6055;52.522;13.446;2023-05-07T04:38:29;10.20;99.90
11991;DHT22;6055;52.522;13.446;2023-05-07T04:40:55;10.20;99.90
11991;DHT22;6055;52.522;13.446;2023-05-07T04:43:21;10.20;99.90
11991;DHT22;6055;52.522;13.446;2023-05-07T04:45:46;10.30;99.90
11991;DHT22;6055;52.522;13.446;2023-05-07T04:48:12;10.30;99.90
11991;DHT22;6055;52.522;13.446;2023-05-07T04:50:39;10.40;99.90
11991;DHT22;6055;52.522;13.446;2023-05-07T04:53:05;10.30;99.90
11991;DHT22;6055;52.522;13.446;2023-05-07T04:55:30;10.40;99.90
11991;DHT22;6055;52.522;13.446;2023-05-07T04:57:56;10.40;99.90
11991;DHT22;6055;52.522;13.446;2023-05-07T05:00:21;10.40;99.90
11991;DHT22;6055;52.522;13.446;2023-05-07T05:02:48;10.50;99.90
11991;DHT22;6055;52.522;13.446;2023-05-07T05:05:13;10.50;99.90
11991;DHT22;6055;52.522;13.446;2023-05-07T05:07:39;10.50;99.90
11991;DHT22;6055;52.522;13.446;2023-05-07T05:10:05;10.60;99.90
11991;DHT22;6055;52.522;13.446;2023-05-07T05:12:30;10.60;99.90
11991;DHT22;6055;52.522;13.446;2023-05-07T05:14:56;10.70;99.90
11991;DHT22;6055;52.522;13.446;2023-05-07T05:17:22;10.70;99.90
11991;DHT22;6055;52.522;13.446;2023-05-07T05:19:47;10.80;99.90
11991;DHT22;6055;52.522;13.446;2023-05-07T05:22:12;10.90;99.90
11991;DHT22;6055;52.522;13.446;2023-05-07T05:24:38;10.80;99.90
11991;DHT22;6055;52.522;13.446;2023-05-07T05:27:04;10.90;99.90
11991;DHT22;6055;52.522;13.446;2023-05-07T05:29:30;10.90;99.90
11991;DHT22;6055;52.522;13.446;2023-05-07T05:31:57;10.90;99.90
11991;DHT22;6055;52.522;13.446;2023-05-07T05:34:22;11.00;99.90
11991;DHT22;6055;52.522;13.446;2023-05-07T05:36:48;11.00;99.90
11991;DHT22;6055;52.522;13.446;2023-05-07T05:39:13;11.00;99.90
11991;DHT22;6055;52.522;13.446;2023-05-07T05:41:39;11.00;99.90
11991;DHT22;6055;52.522;13.446;2023-05-07T05:44:05;10.90;99.90
11991;DHT22;6055;52.522;13.446;2023-05-07T05:46:30;11.00;99.90
11991;DHT22;6055;52.522;13.446;2023-05-07T05:48:56;11.00;99.90
11991;DHT22;6055;52.522;13.446;2023-05-07T05:51:22;11.00;99.90
11991;DHT22;6055;52.522;13.446;2023-05-07T05:53:48;11.00;99.90
11991;DHT22;6055;52.522;13.446;2023-05-07T05:56:14;11.10;99.90
11991;DHT22;6055;52.522;13.446;2023-05-07T05:58:40;11.20;99.90
11991;DHT22;6055;52.522;13.446;2023-05-07T06:01:05;11.20;99.90
11991;DHT22;6055;52.522;13.446;2023-05-07T06:03:31;11.20;99.90
11991;DHT22;6055;52.522;13.446;2023-05-07T06:05:57;11.20;99.90
11991;DHT22;6055;52.522;13.446;2023-05-07T06:08:23;11.20;99.90
11991;DHT22;6055;52.522;13.446;2023-05-07T06:10:49;11.30;99.90
11991;DHT22;6055;52.522;13.446;2023-05-07T06:13:14;11.30;99.90
11991;DHT22;6055;52.522;13.446;2023-05-07T06:15:40;11.30;99.90
11991;DHT22;6055;52.522;13.446;2023-05-07T06:18:05;11.40;99.90
11991;DHT22;6055;52.522;13.446;2023-05-07T06:20:30;11.50;99.90
11991;DHT22;6055;52.522;13.446;2023-05-07T06:22:56;11.60;99.90
11991;DHT22;6055;52.522;13.446;2023-05-07T06:25:21;11.70;99.90
11991;DHT22;6055;52.522;13.446;2023-05-07T06:27:47;11.80;99.90
11991;DHT22;6055;52.522;13.446;2023-05-07T06:30:12;11.80;99.90
11991;DHT22;6055;52.522;13.446;2023-05-07T06:32:40;11.70;99.90
11991;DHT22;6055;52.522;13.446;2023-05-07T06:35:05;11.70;99.90
11991;DHT22;6055;52.522;13.446;2023-05-07T06:37:31;11.70;99.90
11991;DHT22;6055;52.522;13.446;2023-05-07T06:39:56;11.70;99.90
11991;DHT22;6055;52.522;13.446;2023-05-07T06:42:22;11.70;99.90
11991;DHT22;6055;52.522;13.446;2023-05-07T06:44:47;11.80;99.90
11991;DHT22;6055;52.522;13.446;2023-05-07T06:47:13;11.90;99.90
11991;DHT22;6055;52.522;13.446;2023-05-07T06:49:38;11.90;99.90
11991;DHT22;6055;52.522;13.446;2023-05-07T06:52:04;12.00;99.90
11991;DHT22;6055;52.522;13.446;2023-05-07T06:54:29;12.00;99.90
11991;DHT22;6055;52.522;13.446;2023-05-07T06:56:54;12.10;99.90
11991;DHT22;6055;52.522;13.446;2023-05-07T06:59:20;12.20;99.90
11991;DHT22;6055;52.522;13.446;2023-05-07T07:01:45;12.30;99.90
11991;DHT22;6055;52.522;13.446;2023-05-07T07:04:11;12.30;99.90
11991;DHT22;6055;52.522;13.446;2023-05-07T07:06:36;12.30;99.90
11991;DHT22;6055;52.522;13.446;2023-05-07T07:09:02;12.30;99.90
11991;DHT22;6055;52.522;13.446;2023-05-07T07:11:27;12.20;99.90
11991;DHT22;6055;52.522;13.446;2023-05-07T07:13:53;12.20;99.90
11991;DHT22;6055;52.522;13.446;2023-05-07T07:16:20;12.20;99.90
11991;DHT22;6055;52.522;13.446;2023-05-07T07:18:46;12.20;99.90
11991;DHT22;6055;52.522;13.446;2023-05-07T07:21:11;12.30;99.90
11991;DHT22;6055;52.522;13.446;2023-05-07T07:23:37;12.30;99.90
11991;DHT22;6055;52.522;13.446;2023-05-07T07:26:02;12.30;99.90
11991;DHT22;6055;52.522;13.446;2023-05-07T07:28:28;12.30;99.90
11991;DHT22;6055;52.522;13.446;2023-05-07T07:30:53;12.30;99.90
11991;DHT22;6055;52.522;13.446;2023-05-07T07:33:19;12.30;99.90
11991;DHT22;6055;52.522;13.446;2023-05-07T07:35:44;12.30;99.90
11991;DHT22;6055;52.522;13.446;2023-05-07T07:38:10;12.40;99.90
11991;DHT22;6055;52.522;13.446;2023-05-07T07:40:36;12.40;99.90
11991;DHT22;6055;52.522;13.446;2023-05-07T07:43:01;12.40;99.90
11991;DHT22;6055;52.522;13.446;2023-05-07T07:45:27;12.60;99.90
11991;DHT22;6055;52.522;13.446;2023-05-07T07:47:52;12.60;99.90
11991;DHT22;6055;52.522;13.446;2023-05-07T07:50:18;12.60;99.90
11991;DHT22;6055;52.522;13.446;2023-05-07T07:52:45;12.50;99.90
11991;DHT22;6055;52.522;13.446;2023-05-07T07:55:13;12.50;99.90
11991;DHT22;6055;52.522;13.446;2023-05-07T07:57:43;12.50;99.90
11991;DHT22;6055;52.522;13.446;2023-05-07T08:00:09;12.60;99.90
11991;DHT22;6055;52.522;13.446;2023-05-07T08:02:34;12.60;99.90
11991;DHT22;6055;52.522;13.446;2023-05-07T08:05:00;12.60;99.90
11991;DHT22;6055;52.522;13.446;2023-05-07T08:07:25;12.70;99.90
11991;DHT22;6055;52.522;13.446;2023-05-07T08:09:50;12.80;99.90
11991;DHT22;6055;52.522;13.446;2023-05-07T08:12:16;12.90;99.90
11991;DHT22;6055;52.522;13.446;2023-05-07T08:14:44;12.90;99.90
11991;DHT22;6055;52.522;13.446;2023-05-07T08:17:10;12.90;99.90
11991;DHT22;6055;52.522;13.446;2023-05-07T08:19:35;13.00;99.90
11991;DHT22;6055;52.522;13.446;2023-05-07T08:22:01;13.00;99.90
11991;DHT22;6055;52.522;13.446;2023-05-07T08:24:27;13.20;99.90
11991;DHT22;6055;52.522;13.446;2023-05-07T08:26:52;13.40;99.90
11991;DHT22;6055;52.522;13.446;2023-05-07T08:29:18;13.70;99.90
11991;DHT22;6055;52.522;13.446;2023-05-07T08:31:43;14.20;99.90
11991;DHT22;6055;52.522;13.446;2023-05-07T08:34:09;15.10;99.90
11991;DHT22;6055;52.522;13.446;2023-05-07T08:36:34;15.90;99.40
11991;DHT22;6055;52.522;13.446;2023-05-07T08:39:03;16.40;97.50
11991;DHT22;6055;52.522;13.446;2023-05-07T08:41:29;16.50;97.00
11991;DHT22;6055;52.522;13.446;2023-05-07T08:43:57;16.60;96.90
11991;DHT22;6055;52.522;13.446;2023-05-07T08:46:25;16.60;96.80
11991;DHT22;6055;52.522;13.446;2023-05-07T08:48:51;16.70;96.70
11991;DHT22;6055;52.522;13.446;2023-05-07T08:51:19;16.60;96.90
11991;DHT22;6055;52.522;13.446;2023-05-07T08:53:48;16.30;96.70
11991;DHT22;6055;52.522;13.446;2023-05-07T08:56:15;15.90;97.50
11991;DHT22;6055;52.522;13.446;2023-05-07T08:58:42;15.70;97.70
11991;DHT22;6055;52.522;13.446;2023-05-07T09:01:09;15.70;97.70
11991;DHT22;6055;52.522;13.446;2023-05-07T09:03:37;16.30;97.40
11991;DHT22;6055;52.522;13.446;2023-05-07T09:06:03;17.10;95.60
11991;DHT22;6055;52.522;13.446;2023-05-07T09:08:29;17.30;95.10
11991;DHT22;6055;52.522;13.446;2023-05-07T09:10:54;17.60;94.60
11991;DHT22;6055;52.522;13.446;2023-05-07T09:13:20;18.00;94.10
11991;DHT22;6055;52.522;13.446;2023-05-07T09:15:46;18.10;93.90
11991;DHT22;6055;52.522;13.446;2023-05-07T09:18:14;18.00;93.90
11991;DHT22;6055;52.522;13.446;2023-05-07T09:20:41;18.50;93.80
11991;DHT22;6055;52.522;13.446;2023-05-07T09:23:07;18.80;93.00
11991;DHT22;6055;52.522;13.446;2023-05-07T09:25:34;19.00;92.70
11991;DHT22;6055;52.522;13.446;2023-05-07T09:28:00;19.30;92.80
11991;DHT22;6055;52.522;13.446;2023-05-07T09:30:33;20.00;91.60
11991;DHT22;6055;52.522;13.446;2023-05-07T09:33:00;19.70;91.30
11991;DHT22;6055;52.522;13.446;2023-05-07T09:35:26;19.10;91.90
11991;DHT22;6055;52.522;13.446;2023-05-07T09:37:57;18.70;92.20
11991;DHT22;6055;52.522;13.446;2023-05-07T09:40:30;18.30;92.70
11991;DHT22;6055;52.522;13.446;2023-05-07T09:42:56;18.50;92.40
11991;DHT22;6055;52.522;13.446;2023-05-07T09:45:28;18.70;92.60
11991;DHT22;6055;52.522;13.446;2023-05-07T09:47:56;19.30;91.90
11991;DHT22;6055;52.522;13.446;2023-05-07T09:50:26;19.90;91.30
11991;DHT22;6055;52.522;13.446;2023-05-07T09:52:54;20.20;90.70
11991;DHT22;6055;52.522;13.446;2023-05-07T09:55:19;19.90;90.60
11991;DHT22;6055;52.522;13.446;2023-05-07T09:57:46;20.30;90.30
11991;DHT22;6055;52.522;13.446;2023-05-07T10:00:12;20.00;90.00
11991;DHT22;6055;52.522;13.446;2023-05-07T10:02:39;19.50;90.60
11991;DHT22;6055;52.522;13.446;2023-05-07T10:05:12;19.40;90.70
11991;DHT22;6055;52.522;13.446;2023-05-07T10:07:39;18.80;90.90
11991;DHT22;6055;52.522;13.446;2023-05-07T10:10:06;18.30;91.30
11991;DHT22;6055;52.522;13.446;2023-05-07T10:12:32;18.10;92.50
11991;DHT22;6055;52.522;13.446;2023-05-07T10:15:07;17.90;92.60
11991;DHT22;6055;52.522;13.446;2023-05-07T10:17:38;17.70;92.40
11991;DHT22;6055;52.522;13.446;2023-05-07T10:20:05;17.60;92.40
11991;DHT22;6055;52.522;13.446;2023-05-07T10:22:51;17.70;92.60
11991;DHT22;6055;52.522;13.446;2023-05-07T10:25:23;17.90;92.20
11991;DHT22;6055;52.522;13.446;2023-05-07T10:27:52;18.10;92.10
11991;DHT22;6055;52.522;13.446;2023-05-07T10:33:36;17.70;92.50
11991;DHT22;6055;52.522;13.446;2023-05-07T10:36:03;18.00;92.20
11991;DHT22;6055;52.522;13.446;2023-05-07T10:38:29;18.00;92.00
11991;DHT22;6055;52.522;13.446;2023-05-07T10:40:55;18.20;92.10
11991;DHT22;6055;52.522;13.446;2023-05-07T10:43:21;18.10;91.90
11991;DHT22;6055;52.522;13.446;2023-05-07T10:46:10;18.00;92.30
11991;DHT22;6055;52.522;13.446;2023-05-07T10:51:34;18.40;92.00
11991;DHT22;6055;52.522;13.446;2023-05-07T10:56:39;18.50;91.80
11991;DHT22;6055;52.522;13.446;2023-05-07T11:01:56;19.90;90.70
11991;DHT22;6055;52.522;13.446;2023-05-07T11:04:23;21.20;88.50
11991;DHT22;6055;52.522;13.446;2023-05-07T11:07:24;22.10;85.80
11991;DHT22;6055;52.522;13.446;2023-05-07T11:15:10;23.80;79.70
11991;DHT22;6055;52.522;13.446;2023-05-07T11:17:56;24.10;77.40
11991;DHT22;6055;52.522;13.446;2023-05-07T11:20:45;24.30;77.20
11991;DHT22;6055;52.522;13.446;2023-05-07T11:26:08;23.40;77.10
11991;DHT22;6055;52.522;13.446;2023-05-07T11:28:41;22.80;78.70
11991;DHT22;6055;52.522;13.446;2023-05-07T11:31:08;22.20;78.50
11991;DHT22;6055;52.522;13.446;2023-05-07T11:33:34;22.50;78.80
11991;DHT22;6055;52.522;13.446;2023-05-07T11:36:00;23.00;76.70
11991;DHT22;6055;52.522;13.446;2023-05-07T11:38:27;22.90;76.60
11991;DHT22;6055;52.522;13.446;2023-05-07T11:40:58;22.40;77.00
11991;DHT22;6055;52.522;13.446;2023-05-07T11:43:26;22.00;78.00
11991;DHT22;6055;52.522;13.446;2023-05-07T11:45:52;22.00;78.20
11991;DHT22;6055;52.522;13.446;2023-05-07T11:48:18;22.50;77.80
11991;DHT22;6055;52.522;13.446;2023-05-07T11:53:25;23.00;75.40
11991;DHT22;6055;52.522;13.446;2023-05-07T11:55:57;22.60;75.70
11991;DHT22;6055;52.522;13.446;2023-05-07T11:58:24;22.70;75.70
11991;DHT22;6055;52.522;13.446;2023-05-07T12:00:50;22.30;76.30
11991;DHT22;6055;52.522;13.446;2023-05-07T12:03:16;22.00;77.30
11991;DHT22;6055;52.522;13.446;2023-05-07T12:05:43;22.50;77.00
11991;DHT22;6055;52.522;13.446;2023-05-07T12:08:14;22.60;76.00
11991;DHT22;6055;52.522;13.446;2023-05-07T12:10:44;22.30;76.60
11991;DHT22;6055;52.522;13.446;2023-05-07T12:15:44;21.20;77.40
11991;DHT22;6055;52.522;13.446;2023-05-07T12:18:11;20.80;77.90
11991;DHT22;6055;52.522;13.446;2023-05-07T12:20:37;20.90;78.60
11991;DHT22;6055;52.522;13.446;2023-05-07T12:23:03;20.80;78.70
11991;DHT22;6055;52.522;13.446;2023-05-07T12:25:34;20.70;78.90
11991;DHT22;6055;52.522;13.446;2023-05-07T12:28:02;20.70;80.40
11991;DHT22;6055;52.522;13.446;2023-05-07T12:30:27;21.30;77.70
11991;DHT22;6055;52.522;13.446;2023-05-07T12:32:56;22.00;77.60
11991;DHT22;6055;52.522;13.446;2023-05-07T12:35:35;22.70;75.30
11991;DHT22;6055;52.522;13.446;2023-05-07T12:38:01;23.10;75.20
11991;DHT22;6055;52.522;13.446;2023-05-07T12:40:54;23.60;72.90
11991;DHT22;6055;52.522;13.446;2023-05-07T12:43:21;24.00;71.90
11991;DHT22;6055;52.522;13.446;2023-05-07T12:45:48;23.70;72.00
11991;DHT22;6055;52.522;13.446;2023-05-07T12:48:14;22.80;74.60
11991;DHT22;6055;52.522;13.446;2023-05-07T12:50:40;22.50;73.80
11991;DHT22;6055;52.522;13.446;2023-05-07T12:53:07;22.60;72.90
11991;DHT22;6055;52.522;13.446;2023-05-07T12:55:41;22.30;74.50
11991;DHT22;6055;52.522;13.446;2023-05-07T12:58:07;21.80;75.40
11991;DHT22;6055;52.522;13.446;2023-05-07T13:00:35;21.50;74.80
11991;DHT22;6055;52.522;13.446;2023-05-07T13:03:00;21.30;75.60
11991;DHT22;6055;52.522;13.446;2023-05-07T13:05:26;21.50;74.90
11991;DHT22;6055;52.522;13.446;2023-05-07T13:07:55;21.70;75.40
11991;DHT22;6055;52.522;13.446;2023-05-07T13:10:25;22.00;76.10
11991;DHT22;6055;52.522;13.446;2023-05-07T13:12:51;21.90;74.60
11991;DHT22;6055;52.522;13.446;2023-05-07T13:15:17;22.20;75.50
11991;DHT22;6055;52.522;13.446;2023-05-07T13:17:43;22.60;72.80
11991;DHT22;6055;52.522;13.446;2023-05-07T13:20:09;23.00;71.80
11991;DHT22;6055;52.522;13.446;2023-05-07T13:22:35;22.80;72.30
11991;DHT22;6055;52.522;13.446;2023-05-07T13:25:01;22.30;73.10
11991;DHT22;6055;52.522;13.446;2023-05-07T13:27:26;21.60;75.30
11991;DHT22;6055;52.522;13.446;2023-05-07T13:29:52;21.10;75.30
11991;DHT22;6055;52.522;13.446;2023-05-07T13:32:17;21.20;76.30
11991;DHT22;6055;52.522;13.446;2023-05-07T13:34:43;21.10;75.80
11991;DHT22;6055;52.522;13.446;2023-05-07T13:37:08;20.70;76.10
11991;DHT22;6055;52.522;13.446;2023-05-07T13:39:34;20.40;76.50
11991;DHT22;6055;52.522;13.446;2023-05-07T13:41:59;20.00;76.70
11991;DHT22;6055;52.522;13.446;2023-05-07T13:44:26;19.60;78.60
11991;DHT22;6055;52.522;13.446;2023-05-07T13:46:52;19.90;79.90
11991;DHT22;6055;52.522;13.446;2023-05-07T13:49:17;20.50;77.70
11991;DHT22;6055;52.522;13.446;2023-05-07T13:51:43;20.90;76.50
11991;DHT22;6055;52.522;13.446;2023-05-07T13:54:08;20.90;76.00
11991;DHT22;6055;52.522;13.446;2023-05-07T13:56:34;20.90;76.10
11991;DHT22;6055;52.522;13.446;2023-05-07T13:58:59;20.70;76.20
11991;DHT22;6055;52.522;13.446;2023-05-07T14:01:25;20.70;77.00
11991;DHT22;6055;52.522;13.446;2023-05-07T14:03:50;20.50;76.60
11991;DHT22;6055;52.522;13.446;2023-05-07T14:06:16;20.30;77.30
11991;DHT22;6055;52.522;13.446;2023-05-07T14:08:41;19.90;77.90
11991;DHT22;6055;52.522;13.446;2023-05-07T14:11:07;19.70;78.40
11991;DHT22;6055;52.522;13.446;2023-05-07T14:13:32;20.10;78.60
11991;DHT22;6055;52.522;13.446;2023-05-07T14:15:59;20.70;77.00
11991;DHT22;6055;52.522;13.446;2023-05-07T14:18:25;20.90;76.10
11991;DHT22;6055;52.522;13.446;2023-05-07T14:20:51;21.10;75.80
11991;DHT22;6055;52.522;13.446;2023-05-07T14:23:16;21.20;75.70
11991;DHT22;6055;52.522;13.446;2023-05-07T14:25:50;21.10;75.10
11991;DHT22;6055;52.522;13.446;2023-05-07T14:28:24;20.70;75.30
11991;DHT22;6055;52.522;13.446;2023-05-07T14:30:49;20.10;76.00
11991;DHT22;6055;52.522;13.446;2023-05-07T14:33:15;19.70;77.60
11991;DHT22;6055;52.522;13.446;2023-05-07T14:35:46;19.90;77.70
11991;DHT22;6055;52.522;13.446;2023-05-07T14:38:14;20.50;76.20
11991;DHT22;6055;52.522;13.446;2023-05-07T14:40:40;21.00;73.90
11991;DHT22;6055;52.522;13.446;2023-05-07T14:43:08;21.30;73.70
11991;DHT22;6055;52.522;13.446;2023-05-07T14:45:34;21.40;72.90
11991;DHT22;6055;52.522;13.446;2023-05-07T14:48:01;21.70;73.20
11991;DHT22;6055;52.522;13.446;2023-05-07T14:50:27;22.20;72.90
11991;DHT22;6055;52.522;13.446;2023-05-07T14:52:52;22.60;72.20
11991;DHT22;6055;52.522;13.446;2023-05-07T14:55:18;23.10;71.10
11991;DHT22;6055;52.522;13.446;2023-05-07T14:57:43;23.50;71.10
11991;DHT22;6055;52.522;13.446;2023-05-07T15:00:09;23.70;70.80
11991;DHT22;6055;52.522;13.446;2023-05-07T15:02:35;23.80;70.30
11991;DHT22;6055;52.522;13.446;2023-05-07T15:05:00;23.50;70.80
11991;DHT22;6055;52.522;13.446;2023-05-07T15:07:26;22.90;70.80
11991;DHT22;6055;52.522;13.446;2023-05-07T15:09:52;22.10;72.20
11991;DHT22;6055;52.522;13.446;2023-05-07T15:12:17;21.80;72.80
11991;DHT22;6055;52.522;13.446;2023-05-07T15:14:43;21.80;73.30
11991;DHT22;6055;52.522;13.446;2023-05-07T15:17:08;21.60;72.50
11991;DHT22;6055;52.522;13.446;2023-05-07T15:19:34;21.20;73.00
11991;DHT22;6055;52.522;13.446;2023-05-07T15:22:00;20.80;74.10
11991;DHT22;6055;52.522;13.446;2023-05-07T15:24:31;20.70;74.30
11991;DHT22;6055;52.522;13.446;2023-05-07T15:26:57;20.50;75.70
11991;DHT22;6055;52.522;13.446;2023-05-07T15:29:23;20.60;75.30
11991;DHT22;6055;52.522;13.446;2023-05-07T15:31:49;21.00;74.10
11991;DHT22;6055;52.522;13.446;2023-05-07T15:34:15;21.00;74.40
11991;DHT22;6055;52.522;13.446;2023-05-07T15:36:41;21.00;75.10
11991;DHT22;6055;52.522;13.446;2023-05-07T15:39:06;21.10;74.80
11991;DHT22;6055;52.522;13.446;2023-05-07T15:41:32;21.20;74.10
11991;DHT22;6055;52.522;13.446;2023-05-07T15:43:57;21.20;74.60
11991;DHT22;6055;52.522;13.446;2023-05-07T15:46:24;20.70;73.50
11991;DHT22;6055;52.522;13.446;2023-05-07T15:48:50;20.30;74.00
11991;DHT22;6055;52.522;13.446;2023-05-07T15:51:16;20.10;74.30